Terminal Aerodrome Forecast
Issued by NWS

Home | Current Version | Previous Version | Text Only | Print | Product List | Glossary On
Versions: 1 2 3 4 5 6 7 8 9 10 11 12 13 14 15 16 17 18 19 20 21 22 23 24 25 26
000
FTUS44 KHGX 202046 AAA
TAFIAH
TAF AMD
KIAH 202046Z 2021/2124 11009KT P6SM SCT180 BKN250
     FM210300 12006KT P6SM SCT180 BKN250
     FM210800 12006KT P6SM FEW008 BKN025 BKN250
     FM211000 10009KT P6SM SCT008 BKN015
     FM211200 09009KT 6SM -DZ BR BKN008 OVC015
     FM211700 13012KT P6SM BKN008 BKN015 OVC025
     FM212100 13009KT P6SM VCSH BKN025 BKN040 BKN180=

USA.gov is the U.S. government's official web portal to all federal, state and local government web resources and services.